sensor_id;sensor_type;location;lat;lon;timestamp;P1;durP1;ratioP1;P2;durP2;ratioP2
22967;SDS011;11650;48.106;-1.696;2024-03-08T00:01:55;15.90;;;9.80;;
22967;SDS011;11650;48.106;-1.696;2024-03-08T00:04:21;15.10;;;9.27;;
22967;SDS011;11650;48.106;-1.696;2024-03-08T00:06:46;17.23;;;10.30;;
22967;SDS011;11650;48.106;-1.696;2024-03-08T00:09:12;17.77;;;9.50;;
22967;SDS011;11650;48.106;-1.696;2024-03-08T00:11:39;20.13;;;9.63;;
22967;SDS011;11650;48.106;-1.696;2024-03-08T00:14:04;16.40;;;9.60;;
22967;SDS011;11650;48.106;-1.696;2024-03-08T00:16:32;15.67;;;9.50;;
22967;SDS011;11650;48.106;-1.696;2024-03-08T00:18:58;17.47;;;10.00;;
22967;SDS011;11650;48.106;-1.696;2024-03-08T00:21:24;15.80;;;9.40;;
22967;SDS011;11650;48.106;-1.696;2024-03-08T00:23:51;15.33;;;9.43;;
22967;SDS011;11650;48.106;-1.696;2024-03-08T00:26:19;18.03;;;9.20;;
22967;SDS011;11650;48.106;-1.696;2024-03-08T00:28:47;14.00;;;8.93;;
22967;SDS011;11650;48.106;-1.696;2024-03-08T00:31:13;17.87;;;9.73;;
22967;SDS011;11650;48.106;-1.696;2024-03-08T00:33:41;16.57;;;9.40;;
22967;SDS011;11650;48.106;-1.696;2024-03-08T00:36:07;17.20;;;9.43;;
22967;SDS011;11650;48.106;-1.696;2024-03-08T00:38:33;13.97;;;9.17;;
22967;SDS011;11650;48.106;-1.696;2024-03-08T00:40:59;14.33;;;9.20;;
22967;SDS011;11650;48.106;-1.696;2024-03-08T00:43:25;14.67;;;9.30;;
22967;SDS011;11650;48.106;-1.696;2024-03-08T00:45:51;16.23;;;9.90;;
22967;SDS011;11650;48.106;-1.696;2024-03-08T00:48:16;17.13;;;9.70;;
22967;SDS011;11650;48.106;-1.696;2024-03-08T00:50:42;14.60;;;9.10;;
22967;SDS011;11650;48.106;-1.696;2024-03-08T00:53:10;16.53;;;9.80;;
22967;SDS011;11650;48.106;-1.696;2024-03-08T00:55:37;16.57;;;9.67;;
22967;SDS011;11650;48.106;-1.696;2024-03-08T00:58:03;16.50;;;9.90;;
22967;SDS011;11650;48.106;-1.696;2024-03-08T01:00:29;15.67;;;9.43;;
22967;SDS011;11650;48.106;-1.696;2024-03-08T01:02:55;17.67;;;8.97;;
22967;SDS011;11650;48.106;-1.696;2024-03-08T01:05:21;15.00;;;9.10;;
22967;SDS011;11650;48.106;-1.696;2024-03-08T01:07:48;14.80;;;9.33;;
22967;SDS011;11650;48.106;-1.696;2024-03-08T01:10:14;17.00;;;9.40;;
22967;SDS011;11650;48.106;-1.696;2024-03-08T01:12:40;17.80;;;9.10;;
22967;SDS011;11650;48.106;-1.696;2024-03-08T01:15:08;19.43;;;10.40;;
22967;SDS011;11650;48.106;-1.696;2024-03-08T01:17:35;16.40;;;9.40;;
22967;SDS011;11650;48.106;-1.696;2024-03-08T01:20:01;15.07;;;9.17;;
22967;SDS011;11650;48.106;-1.696;2024-03-08T01:22:28;17.27;;;9.53;;
22967;SDS011;11650;48.106;-1.696;2024-03-08T01:24:55;18.43;;;9.27;;
22967;SDS011;11650;48.106;-1.696;2024-03-08T01:27:20;17.63;;;10.10;;
22967;SDS011;11650;48.106;-1.696;2024-03-08T01:29:46;16.60;;;10.37;;
22967;SDS011;11650;48.106;-1.696;2024-03-08T01:32:12;16.30;;;9.43;;
22967;SDS011;11650;48.106;-1.696;2024-03-08T01:34:39;15.87;;;10.07;;
22967;SDS011;11650;48.106;-1.696;2024-03-08T01:37:05;16.33;;;10.30;;
22967;SDS011;11650;48.106;-1.696;2024-03-08T01:39:31;16.50;;;9.97;;
22967;SDS011;11650;48.106;-1.696;2024-03-08T01:41:57;17.23;;;9.73;;
22967;SDS011;11650;48.106;-1.696;2024-03-08T01:44:23;18.13;;;10.27;;
22967;SDS011;11650;48.106;-1.696;2024-03-08T01:46:49;18.33;;;10.73;;
22967;SDS011;11650;48.106;-1.696;2024-03-08T01:49:17;19.07;;;10.50;;
22967;SDS011;11650;48.106;-1.696;2024-03-08T01:51:45;17.20;;;10.20;;
22967;SDS011;11650;48.106;-1.696;2024-03-08T01:54:11;19.13;;;11.07;;
22967;SDS011;11650;48.106;-1.696;2024-03-08T01:56:39;20.90;;;10.43;;
22967;SDS011;11650;48.106;-1.696;2024-03-08T01:59:05;18.07;;;9.70;;
22967;SDS011;11650;48.106;-1.696;2024-03-08T02:01:32;17.40;;;9.80;;
22967;SDS011;11650;48.106;-1.696;2024-03-08T02:03:59;18.53;;;11.40;;
22967;SDS011;11650;48.106;-1.696;2024-03-08T02:06:25;16.87;;;10.50;;
22967;SDS011;11650;48.106;-1.696;2024-03-08T02:08:50;17.30;;;10.30;;
22967;SDS011;11650;48.106;-1.696;2024-03-08T02:11:16;17.93;;;9.97;;
22967;SDS011;11650;48.106;-1.696;2024-03-08T02:13:44;17.27;;;10.33;;
22967;SDS011;11650;48.106;-1.696;2024-03-08T02:16:09;17.30;;;9.97;;
22967;SDS011;11650;48.106;-1.696;2024-03-08T02:18:35;17.57;;;10.90;;
22967;SDS011;11650;48.106;-1.696;2024-03-08T02:21:02;16.80;;;10.30;;
22967;SDS011;11650;48.106;-1.696;2024-03-08T02:23:28;16.50;;;9.57;;
22967;SDS011;11650;48.106;-1.696;2024-03-08T02:25:55;18.70;;;10.27;;
22967;SDS011;11650;48.106;-1.696;2024-03-08T02:28:22;16.50;;;9.90;;
22967;SDS011;11650;48.106;-1.696;2024-03-08T02:30:49;16.70;;;10.03;;
22967;SDS011;11650;48.106;-1.696;2024-03-08T02:33:16;16.83;;;9.83;;
22967;SDS011;11650;48.106;-1.696;2024-03-08T02:35:43;17.43;;;9.93;;
22967;SDS011;11650;48.106;-1.696;2024-03-08T02:38:12;15.57;;;9.70;;
22967;SDS011;11650;48.106;-1.696;2024-03-08T02:40:43;18.93;;;10.83;;
22967;SDS011;11650;48.106;-1.696;2024-03-08T02:43:13;15.50;;;9.13;;
22967;SDS011;11650;48.106;-1.696;2024-03-08T02:45:40;17.20;;;10.27;;
22967;SDS011;11650;48.106;-1.696;2024-03-08T02:48:10;16.73;;;9.80;;
22967;SDS011;11650;48.106;-1.696;2024-03-08T02:50:36;17.90;;;9.93;;
22967;SDS011;11650;48.106;-1.696;2024-03-08T02:53:03;16.70;;;9.53;;
22967;SDS011;11650;48.106;-1.696;2024-03-08T02:55:29;16.27;;;9.77;;
22967;SDS011;11650;48.106;-1.696;2024-03-08T02:57:55;15.40;;;9.47;;
22967;SDS011;11650;48.106;-1.696;2024-03-08T03:00:21;16.77;;;9.50;;
22967;SDS011;11650;48.106;-1.696;2024-03-08T03:02:48;16.60;;;9.30;;
22967;SDS011;11650;48.106;-1.696;2024-03-08T03:05:18;14.20;;;9.17;;
22967;SDS011;11650;48.106;-1.696;2024-03-08T03:07:45;16.80;;;10.00;;
22967;SDS011;11650;48.106;-1.696;2024-03-08T03:10:10;14.50;;;8.80;;
22967;SDS011;11650;48.106;-1.696;2024-03-08T03:12:37;15.37;;;9.27;;
22967;SDS011;11650;48.106;-1.696;2024-03-08T03:15:03;15.23;;;9.90;;
22967;SDS011;11650;48.106;-1.696;2024-03-08T03:17:29;14.80;;;9.00;;
22967;SDS011;11650;48.106;-1.696;2024-03-08T03:19:55;15.67;;;9.60;;
22967;SDS011;11650;48.106;-1.696;2024-03-08T03:22:20;15.27;;;9.30;;
22967;SDS011;11650;48.106;-1.696;2024-03-08T03:24:46;14.97;;;9.40;;
22967;SDS011;11650;48.106;-1.696;2024-03-08T03:27:12;16.23;;;9.57;;
22967;SDS011;11650;48.106;-1.696;2024-03-08T03:29:40;14.87;;;8.73;;
22967;SDS011;11650;48.106;-1.696;2024-03-08T03:32:13;18.50;;;9.57;;
22967;SDS011;11650;48.106;-1.696;2024-03-08T03:34:40;16.13;;;9.53;;
22967;SDS011;11650;48.106;-1.696;2024-03-08T03:37:09;15.07;;;9.30;;
22967;SDS011;11650;48.106;-1.696;2024-03-08T03:39:37;16.70;;;9.43;;
22967;SDS011;11650;48.106;-1.696;2024-03-08T03:42:18;12.93;;;8.77;;
22967;SDS011;11650;48.106;-1.696;2024-03-08T03:44:47;16.60;;;9.97;;
22967;SDS011;11650;48.106;-1.696;2024-03-08T03:47:13;16.13;;;9.27;;
22967;SDS011;11650;48.106;-1.696;2024-03-08T03:49:43;15.33;;;9.37;;
22967;SDS011;11650;48.106;-1.696;2024-03-08T03:52:10;15.87;;;9.20;;
22967;SDS011;11650;48.106;-1.696;2024-03-08T03:54:35;16.00;;;9.80;;
22967;SDS011;11650;48.106;-1.696;2024-03-08T03:57:01;15.53;;;9.80;;
22967;SDS011;11650;48.106;-1.696;2024-03-08T03:59:27;15.70;;;8.87;;
22967;SDS011;11650;48.106;-1.696;2024-03-08T04:01:53;18.33;;;9.80;;
22967;SDS011;11650;48.106;-1.696;2024-03-08T04:04:19;16.03;;;9.37;;
22967;SDS011;11650;48.106;-1.696;2024-03-08T04:06:45;16.07;;;9.80;;
22967;SDS011;11650;48.106;-1.696;2024-03-08T04:09:11;15.87;;;9.27;;
22967;SDS011;11650;48.106;-1.696;2024-03-08T04:11:37;18.17;;;9.23;;
22967;SDS011;11650;48.106;-1.696;2024-03-08T04:14:03;14.47;;;9.47;;
22967;SDS011;11650;48.106;-1.696;2024-03-08T04:16:30;16.53;;;9.83;;
22967;SDS011;11650;48.106;-1.696;2024-03-08T04:18:56;17.00;;;10.40;;
22967;SDS011;11650;48.106;-1.696;2024-03-08T04:21:22;14.17;;;9.00;;
22967;SDS011;11650;48.106;-1.696;2024-03-08T04:23:48;14.73;;;9.23;;
22967;SDS011;11650;48.106;-1.696;2024-03-08T04:26:14;18.97;;;9.70;;
22967;SDS011;11650;48.106;-1.696;2024-03-08T04:28:39;18.00;;;9.67;;
22967;SDS011;11650;48.106;-1.696;2024-03-08T04:31:05;16.33;;;9.80;;
22967;SDS011;11650;48.106;-1.696;2024-03-08T04:33:31;15.97;;;10.30;;
22967;SDS011;11650;48.106;-1.696;2024-03-08T04:35:57;16.20;;;9.57;;
22967;SDS011;11650;48.106;-1.696;2024-03-08T04:38:23;19.53;;;10.33;;
22967;SDS011;11650;48.106;-1.696;2024-03-08T04:40:50;15.57;;;9.87;;
22967;SDS011;11650;48.106;-1.696;2024-03-08T04:43:15;16.83;;;9.97;;
22967;SDS011;11650;48.106;-1.696;2024-03-08T04:45:43;16.73;;;9.83;;
22967;SDS011;11650;48.106;-1.696;2024-03-08T04:48:09;18.53;;;9.93;;
22967;SDS011;11650;48.106;-1.696;2024-03-08T04:50:36;14.80;;;9.47;;
22967;SDS011;11650;48.106;-1.696;2024-03-08T04:53:03;16.13;;;9.80;;
22967;SDS011;11650;48.106;-1.696;2024-03-08T04:55:33;17.30;;;10.23;;
22967;SDS011;11650;48.106;-1.696;2024-03-08T04:57:59;17.70;;;10.60;;
22967;SDS011;11650;48.106;-1.696;2024-03-08T05:00:25;16.90;;;10.03;;
22967;SDS011;11650;48.106;-1.696;2024-03-08T05:02:50;17.50;;;10.43;;
22967;SDS011;11650;48.106;-1.696;2024-03-08T05:05:18;18.80;;;10.53;;
22967;SDS011;11650;48.106;-1.696;2024-03-08T05:07:44;18.40;;;10.37;;
22967;SDS011;11650;48.106;-1.696;2024-03-08T05:10:10;18.20;;;10.10;;
22967;SDS011;11650;48.106;-1.696;2024-03-08T05:12:36;17.17;;;10.53;;
22967;SDS011;11650;48.106;-1.696;2024-03-08T05:15:05;17.70;;;10.43;;
22967;SDS011;11650;48.106;-1.696;2024-03-08T05:17:32;16.17;;;9.93;;
22967;SDS011;11650;48.106;-1.696;2024-03-08T05:19:57;18.17;;;11.20;;
22967;SDS011;11650;48.106;-1.696;2024-03-08T05:22:23;17.20;;;10.53;;
22967;SDS011;11650;48.106;-1.696;2024-03-08T05:24:49;19.40;;;10.83;;
22967;SDS011;11650;48.106;-1.696;2024-03-08T05:27:15;20.23;;;10.77;;
22967;SDS011;11650;48.106;-1.696;2024-03-08T05:29:41;19.70;;;10.90;;
22967;SDS011;11650;48.106;-1.696;2024-03-08T05:32:06;20.33;;;11.27;;
22967;SDS011;11650;48.106;-1.696;2024-03-08T05:34:32;20.83;;;11.73;;
22967;SDS011;11650;48.106;-1.696;2024-03-08T05:36:58;22.10;;;11.43;;
22967;SDS011;11650;48.106;-1.696;2024-03-08T05:39:25;19.30;;;11.63;;
22967;SDS011;11650;48.106;-1.696;2024-03-08T05:41:50;19.23;;;11.57;;
22967;SDS011;11650;48.106;-1.696;2024-03-08T05:44:16;22.03;;;11.77;;
22967;SDS011;11650;48.106;-1.696;2024-03-08T05:46:42;18.57;;;10.70;;
22967;SDS011;11650;48.106;-1.696;2024-03-08T05:49:08;21.50;;;11.43;;
22967;SDS011;11650;48.106;-1.696;2024-03-08T05:51:36;20.60;;;11.57;;
22967;SDS011;11650;48.106;-1.696;2024-03-08T05:54:04;21.20;;;11.57;;
22967;SDS011;11650;48.106;-1.696;2024-03-08T05:56:31;20.73;;;11.57;;
22967;SDS011;11650;48.106;-1.696;2024-03-08T05:58:57;20.33;;;11.57;;
22967;SDS011;11650;48.106;-1.696;2024-03-08T06:01:24;20.57;;;11.30;;
22967;SDS011;11650;48.106;-1.696;2024-03-08T06:03:50;20.57;;;12.07;;
22967;SDS011;11650;48.106;-1.696;2024-03-08T06:06:15;24.43;;;11.83;;
22967;SDS011;11650;48.106;-1.696;2024-03-08T06:08:42;23.10;;;13.30;;
22967;SDS011;11650;48.106;-1.696;2024-03-08T06:11:09;22.50;;;12.30;;
22967;SDS011;11650;48.106;-1.696;2024-03-08T06:13:35;20.27;;;12.53;;
22967;SDS011;11650;48.106;-1.696;2024-03-08T06:16:01;22.17;;;12.87;;
22967;SDS011;11650;48.106;-1.696;2024-03-08T06:18:30;21.83;;;11.70;;
22967;SDS011;11650;48.106;-1.696;2024-03-08T06:20:56;22.03;;;12.87;;
22967;SDS011;11650;48.106;-1.696;2024-03-08T06:23:22;25.07;;;13.43;;
22967;SDS011;11650;48.106;-1.696;2024-03-08T06:25:48;25.33;;;13.40;;
22967;SDS011;11650;48.106;-1.696;2024-03-08T06:28:14;20.93;;;12.03;;
22967;SDS011;11650;48.106;-1.696;2024-03-08T06:30:40;21.17;;;12.17;;
22967;SDS011;11650;48.106;-1.696;2024-03-08T06:33:05;26.57;;;12.73;;
22967;SDS011;11650;48.106;-1.696;2024-03-08T06:35:32;24.20;;;12.83;;
22967;SDS011;11650;48.106;-1.696;2024-03-08T06:38:00;23.23;;;13.47;;
22967;SDS011;11650;48.106;-1.696;2024-03-08T06:40:26;22.70;;;12.87;;
22967;SDS011;11650;48.106;-1.696;2024-03-08T06:42:52;20.53;;;11.53;;
22967;SDS011;11650;48.106;-1.696;2024-03-08T06:45:17;23.27;;;12.57;;
22967;SDS011;11650;48.106;-1.696;2024-03-08T06:47:46;21.33;;;12.23;;
22967;SDS011;11650;48.106;-1.696;2024-03-08T06:50:12;23.43;;;13.23;;
22967;SDS011;11650;48.106;-1.696;2024-03-08T06:52:38;24.93;;;12.93;;
22967;SDS011;11650;48.106;-1.696;2024-03-08T06:55:05;22.03;;;12.90;;
22967;SDS011;11650;48.106;-1.696;2024-03-08T06:57:31;25.03;;;13.37;;
22967;SDS011;11650;48.106;-1.696;2024-03-08T06:59:57;25.03;;;13.50;;
22967;SDS011;11650;48.106;-1.696;2024-03-08T07:02:23;28.70;;;14.20;;
22967;SDS011;11650;48.106;-1.696;2024-03-08T07:04:52;21.97;;;12.83;;
22967;SDS011;11650;48.106;-1.696;2024-03-08T07:07:18;23.83;;;12.87;;
22967;SDS011;11650;48.106;-1.696;2024-03-08T07:09:45;27.50;;;13.83;;
22967;SDS011;11650;48.106;-1.696;2024-03-08T07:12:11;28.40;;;15.07;;
22967;SDS011;11650;48.106;-1.696;2024-03-08T07:14:38;25.77;;;13.40;;
22967;SDS011;11650;48.106;-1.696;2024-03-08T07:17:06;25.57;;;13.90;;
22967;SDS011;11650;48.106;-1.696;2024-03-08T07:19:34;26.43;;;14.10;;
22967;SDS011;11650;48.106;-1.696;2024-03-08T07:21:59;25.50;;;13.93;;
22967;SDS011;11650;48.106;-1.696;2024-03-08T07:24:25;24.17;;;13.40;;
22967;SDS011;11650;48.106;-1.696;2024-03-08T07:27:09;30.03;;;14.17;;
22967;SDS011;11650;48.106;-1.696;2024-03-08T07:29:35;25.50;;;14.47;;
22967;SDS011;11650;48.106;-1.696;2024-03-08T07:32:01;25.23;;;13.80;;
22967;SDS011;11650;48.106;-1.696;2024-03-08T07:34:45;28.47;;;15.37;;
22967;SDS011;11650;48.106;-1.696;2024-03-08T07:37:10;26.47;;;14.20;;
22967;SDS011;11650;48.106;-1.696;2024-03-08T07:39:37;28.60;;;14.23;;
22967;SDS011;11650;48.106;-1.696;2024-03-08T07:42:04;27.70;;;15.03;;
22967;SDS011;11650;48.106;-1.696;2024-03-08T07:44:29;26.80;;;14.50;;
22967;SDS011;11650;48.106;-1.696;2024-03-08T07:46:56;27.50;;;14.87;;
22967;SDS011;11650;48.106;-1.696;2024-03-08T07:49:22;27.07;;;14.93;;
22967;SDS011;11650;48.106;-1.696;2024-03-08T07:51:48;25.53;;;14.00;;
22967;SDS011;11650;48.106;-1.696;2024-03-08T07:54:14;26.57;;;14.53;;
22967;SDS011;11650;48.106;-1.696;2024-03-08T07:56:40;28.17;;;14.90;;
22967;SDS011;11650;48.106;-1.696;2024-03-08T07:59:05;25.50;;;14.70;;
22967;SDS011;11650;48.106;-1.696;2024-03-08T08:01:31;25.33;;;14.33;;
22967;SDS011;11650;48.106;-1.696;2024-03-08T08:03:58;25.60;;;14.03;;
22967;SDS011;11650;48.106;-1.696;2024-03-08T08:06:26;31.73;;;14.60;;
22967;SDS011;11650;48.106;-1.696;2024-03-08T08:08:52;26.10;;;13.57;;
22967;SDS011;11650;48.106;-1.696;2024-03-08T08:11:18;30.43;;;14.13;;
22967;SDS011;11650;48.106;-1.696;2024-03-08T08:13:45;25.77;;;13.80;;
22967;SDS011;11650;48.106;-1.696;2024-03-08T08:16:11;24.10;;;14.23;;
22967;SDS011;11650;48.106;-1.696;2024-03-08T08:18:38;24.63;;;14.40;;
22967;SDS011;11650;48.106;-1.696;2024-03-08T08:21:04;26.70;;;13.50;;
22967;SDS011;11650;48.106;-1.696;2024-03-08T08:23:33;22.03;;;12.97;;
22967;SDS011;11650;48.106;-1.696;2024-03-08T08:25:59;23.53;;;13.87;;
22967;SDS011;11650;48.106;-1.696;2024-03-08T08:28:26;24.07;;;13.30;;
22967;SDS011;11650;48.106;-1.696;2024-03-08T08:30:52;25.43;;;12.83;;
22967;SDS011;11650;48.106;-1.696;2024-03-08T08:33:17;25.50;;;13.10;;
22967;SDS011;11650;48.106;-1.696;2024-03-08T08:35:43;27.20;;;13.77;;
22967;SDS011;11650;48.106;-1.696;2024-03-08T08:38:08;23.13;;;13.27;;
22967;SDS011;11650;48.106;-1.696;2024-03-08T08:40:34;19.73;;;11.67;;
22967;SDS011;11650;48.106;-1.696;2024-03-08T08:43:01;25.17;;;13.13;;
22967;SDS011;11650;48.106;-1.696;2024-03-08T08:45:29;21.53;;;12.57;;
22967;SDS011;11650;48.106;-1.696;2024-03-08T08:47:55;20.97;;;12.80;;
22967;SDS011;11650;48.106;-1.696;2024-03-08T08:50:21;22.27;;;12.33;;
22967;SDS011;11650;48.106;-1.696;2024-03-08T08:52:51;23.40;;;12.90;;
22967;SDS011;11650;48.106;-1.696;2024-03-08T08:55:18;22.17;;;11.83;;
22967;SDS011;11650;48.106;-1.696;2024-03-08T08:57:46;24.07;;;12.30;;
22967;SDS011;11650;48.106;-1.696;2024-03-08T09:00:16;23.00;;;13.20;;
22967;SDS011;11650;48.106;-1.696;2024-03-08T09:02:46;20.37;;;11.43;;
22967;SDS011;11650;48.106;-1.696;2024-03-08T09:05:13;21.70;;;12.73;;
22967;SDS011;11650;48.106;-1.696;2024-03-08T09:07:42;22.90;;;11.83;;
22967;SDS011;11650;48.106;-1.696;2024-03-08T09:10:09;18.63;;;11.77;;
22967;SDS011;11650;48.106;-1.696;2024-03-08T09:12:37;22.53;;;12.03;;
22967;SDS011;11650;48.106;-1.696;2024-03-08T09:15:06;22.30;;;11.50;;
22967;SDS011;11650;48.106;-1.696;2024-03-08T09:17:38;21.43;;;11.60;;
22967;SDS011;11650;48.106;-1.696;2024-03-08T09:20:08;19.87;;;11.63;;
22967;SDS011;11650;48.106;-1.696;2024-03-08T09:22:35;19.77;;;11.37;;
22967;SDS011;11650;48.106;-1.696;2024-03-08T09:25:01;19.40;;;10.97;;
22967;SDS011;11650;48.106;-1.696;2024-03-08T09:27:30;18.27;;;10.60;;
22967;SDS011;11650;48.106;-1.696;2024-03-08T09:29:55;21.33;;;11.40;;
22967;SDS011;11650;48.106;-1.696;2024-03-08T09:32:21;17.73;;;10.97;;
22967;SDS011;11650;48.106;-1.696;2024-03-08T09:34:47;20.13;;;11.47;;
22967;SDS011;11650;48.106;-1.696;2024-03-08T09:37:13;18.93;;;11.20;;
22967;SDS011;11650;48.106;-1.696;2024-03-08T09:39:39;22.23;;;10.90;;
22967;SDS011;11650;48.106;-1.696;2024-03-08T09:42:04;18.43;;;11.67;;
22967;SDS011;11650;48.106;-1.696;2024-03-08T09:44:31;19.07;;;10.57;;
22967;SDS011;11650;48.106;-1.696;2024-03-08T09:46:57;19.77;;;10.83;;
22967;SDS011;11650;48.106;-1.696;2024-03-08T09:49:24;19.90;;;10.00;;
22967;SDS011;11650;48.106;-1.696;2024-03-08T09:51:49;17.60;;;10.73;;
22967;SDS011;11650;48.106;-1.696;2024-03-08T09:54:16;20.47;;;10.60;;
22967;SDS011;11650;48.106;-1.696;2024-03-08T09:56:42;17.23;;;10.07;;
22967;SDS011;11650;48.106;-1.696;2024-03-08T09:59:10;19.53;;;10.57;;
22967;SDS011;11650;48.106;-1.696;2024-03-08T10:01:47;16.20;;;9.47;;
22967;SDS011;11650;48.106;-1.696;2024-03-08T10:04:13;17.00;;;10.13;;
22967;SDS011;11650;48.106;-1.696;2024-03-08T10:06:42;20.33;;;11.03;;
22967;SDS011;11650;48.106;-1.696;2024-03-08T10:09:08;17.60;;;10.00;;
22967;SDS011;11650;48.106;-1.696;2024-03-08T10:11:35;18.93;;;10.00;;
22967;SDS011;11650;48.106;-1.696;2024-03-08T10:14:01;17.27;;;10.03;;
22967;SDS011;11650;48.106;-1.696;2024-03-08T10:16:27;16.30;;;9.37;;
22967;SDS011;11650;48.106;-1.696;2024-03-08T10:18:53;15.83;;;9.87;;
22967;SDS011;11650;48.106;-1.696;2024-03-08T10:21:21;17.97;;;9.30;;
22967;SDS011;11650;48.106;-1.696;2024-03-08T10:23:47;16.03;;;9.73;;
22967;SDS011;11650;48.106;-1.696;2024-03-08T10:26:14;17.23;;;9.77;;
22967;SDS011;11650;48.106;-1.696;2024-03-08T10:28:44;17.03;;;9.43;;
22967;SDS011;11650;48.106;-1.696;2024-03-08T10:31:12;13.63;;;8.77;;
22967;SDS011;11650;48.106;-1.696;2024-03-08T10:33:40;18.13;;;9.50;;
22967;SDS011;11650;48.106;-1.696;2024-03-08T10:36:09;16.97;;;9.17;;
22967;SDS011;11650;48.106;-1.696;2024-03-08T10:38:38;19.57;;;9.80;;
22967;SDS011;11650;48.106;-1.696;2024-03-08T10:41:06;14.83;;;8.87;;
22967;SDS011;11650;48.106;-1.696;2024-03-08T10:43:40;19.13;;;9.37;;
22967;SDS011;11650;48.106;-1.696;2024-03-08T10:48:53;14.63;;;8.70;;
22967;SDS011;11650;48.106;-1.696;2024-03-08T10:51:23;13.57;;;8.20;;
22967;SDS011;11650;48.106;-1.696;2024-03-08T10:53:50;17.07;;;8.80;;
22967;SDS011;11650;48.106;-1.696;2024-03-08T10:56:19;16.70;;;8.23;;
22967;SDS011;11650;48.106;-1.696;2024-03-08T10:58:44;17.00;;;8.37;;
22967;SDS011;11650;48.106;-1.696;2024-03-08T11:01:12;15.50;;;7.70;;
22967;SDS011;11650;48.106;-1.696;2024-03-08T11:06:21;16.93;;;8.27;;
22967;SDS011;11650;48.106;-1.696;2024-03-08T11:08:54;13.60;;;8.40;;
22967;SDS011;11650;48.106;-1.696;2024-03-08T11:11:27;12.57;;;7.60;;
22967;SDS011;11650;48.106;-1.696;2024-03-08T11:13:57;14.57;;;8.20;;
22967;SDS011;11650;48.106;-1.696;2024-03-08T11:18:57;11.33;;;6.77;;
22967;SDS011;11650;48.106;-1.696;2024-03-08T11:21:31;13.20;;;7.20;;
22967;SDS011;11650;48.106;-1.696;2024-03-08T11:24:01;15.90;;;7.70;;
22967;SDS011;11650;48.106;-1.696;2024-03-08T11:26:32;15.47;;;7.60;;
22967;SDS011;11650;48.106;-1.696;2024-03-08T11:32:07;12.47;;;7.43;;
22967;SDS011;11650;48.106;-1.696;2024-03-08T11:34:35;13.53;;;7.13;;
22967;SDS011;11650;48.106;-1.696;2024-03-08T11:37:04;16.33;;;7.30;;
22967;SDS011;11650;48.106;-1.696;2024-03-08T11:39:34;11.17;;;6.93;;
22967;SDS011;11650;48.106;-1.696;2024-03-08T11:42:02;12.33;;;7.20;;
22967;SDS011;11650;48.106;-1.696;2024-03-08T11:44:28;12.43;;;7.30;;
22967;SDS011;11650;48.106;-1.696;2024-03-08T11:46:53;14.40;;;7.60;;
22967;SDS011;11650;48.106;-1.696;2024-03-08T11:49:19;13.37;;;7.50;;
22967;SDS011;11650;48.106;-1.696;2024-03-08T11:51:45;13.30;;;7.17;;
22967;SDS011;11650;48.106;-1.696;2024-03-08T11:54:12;14.27;;;7.57;;
22967;SDS011;11650;48.106;-1.696;2024-03-08T11:56:38;12.87;;;7.30;;
22967;SDS011;11650;48.106;-1.696;2024-03-08T11:59:06;15.47;;;8.17;;
22967;SDS011;11650;48.106;-1.696;2024-03-08T12:01:37;15.73;;;7.20;;
22967;SDS011;11650;48.106;-1.696;2024-03-08T12:04:04;12.10;;;7.00;;
22967;SDS011;11650;48.106;-1.696;2024-03-08T12:06:37;13.67;;;7.10;;
22967;SDS011;11650;48.106;-1.696;2024-03-08T12:09:07;12.33;;;6.33;;
22967;SDS011;11650;48.106;-1.696;2024-03-08T12:11:35;14.60;;;6.93;;
22967;SDS011;11650;48.106;-1.696;2024-03-08T12:14:01;10.97;;;6.77;;
22967;SDS011;11650;48.106;-1.696;2024-03-08T12:16:27;11.23;;;6.67;;
22967;SDS011;11650;48.106;-1.696;2024-03-08T12:18:53;14.53;;;7.40;;
22967;SDS011;11650;48.106;-1.696;2024-03-08T12:21:19;15.10;;;7.00;;
22967;SDS011;11650;48.106;-1.696;2024-03-08T12:23:47;12.47;;;6.53;;
22967;SDS011;11650;48.106;-1.696;2024-03-08T12:26:16;11.30;;;6.53;;
22967;SDS011;11650;48.106;-1.696;2024-03-08T12:28:43;14.03;;;7.40;;
22967;SDS011;11650;48.106;-1.696;2024-03-08T12:31:13;12.13;;;6.50;;
22967;SDS011;11650;48.106;-1.696;2024-03-08T12:33:52;12.90;;;6.50;;
22967;SDS011;11650;48.106;-1.696;2024-03-08T12:36:19;14.07;;;7.40;;
22967;SDS011;11650;48.106;-1.696;2024-03-08T12:38:46;15.57;;;7.83;;
22967;SDS011;11650;48.106;-1.696;2024-03-08T12:41:15;14.47;;;7.10;;
22967;SDS011;11650;48.106;-1.696;2024-03-08T12:43:45;16.93;;;7.67;;
22967;SDS011;11650;48.106;-1.696;2024-03-08T12:46:17;15.03;;;7.33;;
22967;SDS011;11650;48.106;-1.696;2024-03-08T12:48:47;13.30;;;7.10;;
22967;SDS011;11650;48.106;-1.696;2024-03-08T12:51:13;11.87;;;6.83;;
22967;SDS011;11650;48.106;-1.696;2024-03-08T12:53:40;11.83;;;6.63;;
22967;SDS011;11650;48.106;-1.696;2024-03-08T12:56:09;16.83;;;7.23;;
22967;SDS011;11650;48.106;-1.696;2024-03-08T12:58:38;13.67;;;7.17;;
22967;SDS011;11650;48.106;-1.696;2024-03-08T13:01:04;10.90;;;6.70;;
22967;SDS011;11650;48.106;-1.696;2024-03-08T13:03:38;11.57;;;6.37;;
22967;SDS011;11650;48.106;-1.696;2024-03-08T13:06:05;14.50;;;6.23;;
22967;SDS011;11650;48.106;-1.696;2024-03-08T13:08:35;10.33;;;6.03;;
22967;SDS011;11650;48.106;-1.696;2024-03-08T13:11:02;11.37;;;6.50;;
22967;SDS011;11650;48.106;-1.696;2024-03-08T13:13:28;11.57;;;6.40;;
22967;SDS011;11650;48.106;-1.696;2024-03-08T13:15:54;13.10;;;6.03;;
22967;SDS011;11650;48.106;-1.696;2024-03-08T13:18:21;10.00;;;6.07;;
22967;SDS011;11650;48.106;-1.696;2024-03-08T13:20:48;9.77;;;6.17;;
22967;SDS011;11650;48.106;-1.696;2024-03-08T13:23:17;9.03;;;5.87;;
22967;SDS011;11650;48.106;-1.696;2024-03-08T13:25:42;12.70;;;5.83;;
22967;SDS011;11650;48.106;-1.696;2024-03-08T13:28:08;11.47;;;5.60;;
22967;SDS011;11650;48.106;-1.696;2024-03-08T13:30:35;10.63;;;5.33;;
22967;SDS011;11650;48.106;-1.696;2024-03-08T13:33:01;9.17;;;5.33;;
22967;SDS011;11650;48.106;-1.696;2024-03-08T13:35:29;8.80;;;5.70;;
22967;SDS011;11650;48.106;-1.696;2024-03-08T13:37:56;12.83;;;5.57;;
22967;SDS011;11650;48.106;-1.696;2024-03-08T13:40:21;11.83;;;5.37;;
22967;SDS011;11650;48.106;-1.696;2024-03-08T13:42:47;10.17;;;5.00;;
22967;SDS011;11650;48.106;-1.696;2024-03-08T13:45:14;8.07;;;4.50;;
22967;SDS011;11650;48.106;-1.696;2024-03-08T13:47:43;10.37;;;4.90;;
22967;SDS011;11650;48.106;-1.696;2024-03-08T13:50:09;9.47;;;5.23;;
22967;SDS011;11650;48.106;-1.696;2024-03-08T13:52:43;7.67;;;4.60;;
22967;SDS011;11650;48.106;-1.696;2024-03-08T13:55:09;9.43;;;4.80;;
22967;SDS011;11650;48.106;-1.696;2024-03-08T13:57:35;9.83;;;5.00;;
22967;SDS011;11650;48.106;-1.696;2024-03-08T14:00:01;10.00;;;5.23;;
22967;SDS011;11650;48.106;-1.696;2024-03-08T14:02:27;11.13;;;5.37;;
22967;SDS011;11650;48.106;-1.696;2024-03-08T14:04:55;10.33;;;5.30;;
22967;SDS011;11650;48.106;-1.696;2024-03-08T14:07:20;10.60;;;5.30;;
22967;SDS011;11650;48.106;-1.696;2024-03-08T14:09:48;11.90;;;5.43;;
22967;SDS011;11650;48.106;-1.696;2024-03-08T14:12:14;10.50;;;5.67;;
22967;SDS011;11650;48.106;-1.696;2024-03-08T14:14:43;12.87;;;5.67;;
22967;SDS011;11650;48.106;-1.696;2024-03-08T14:17:09;11.63;;;5.17;;
22967;SDS011;11650;48.106;-1.696;2024-03-08T14:19:36;10.90;;;5.57;;
22967;SDS011;11650;48.106;-1.696;2024-03-08T14:22:02;13.10;;;6.17;;
22967;SDS011;11650;48.106;-1.696;2024-03-08T14:24:32;13.90;;;6.30;;
22967;SDS011;11650;48.106;-1.696;2024-03-08T14:27:00;12.13;;;6.83;;